Time;durP1;ratioP1;P1;durP2;ratioP2;P2;SDS_P1;SDS_P2;PMS_P1;PMS_P2;Temp;Humidity;BMP_temperature;BMP_pressure;BME280_temperature;BME280_humidity;BME280_pressure;Samples;Min_cycle;Max_cycle;Signal;HPM_P1;HPM_P2
2022/09/02 00:01:00;;;;;;;8.02;1.80;;;19.30;99.90;;;;;;4164749;28;20727;-91
2022/09/02 00:03:01;;;;;;;2.55;1.60;;;19.20;99.90;;;;;;4148315;28;20258;-92
2022/09/02 00:05:02;;;;;;;7.15;1.88;;;19.20;99.90;;;;;;4166236;28;20195;-91
2022/09/02 00:07:03;;;;;;;9.02;1.95;;;19.20;99.90;;;;;;4151147;28;20184;-90
2022/09/02 00:09:06;;;;;;;4.47;2.00;;;19.20;99.90;;;;;;4150004;28;20173;-95
2022/09/02 00:11:11;;;;;;;3.50;1.80;;;19.20;99.90;;;;;;4165034;28;20210;-92
2022/09/02 00:13:15;;;;;;;8.73;2.38;;;19.20;99.90;;;;;;4169089;28;20179;-96
2022/09/02 00:15:15;;;;;;;5.38;1.83;;;19.10;99.90;;;;;;4170967;28;20214;-96
2022/09/02 00:17:16;;;;;;;9.27;2.47;;;19.20;99.90;;;;;;4171117;28;20180;-95
2022/09/02 00:19:23;;;;;;;9.82;2.13;;;19.20;99.90;;;;;;4168162;28;20192;-95
2022/09/02 00:21:24;;;;;;;16.20;3.05;;;19.20;99.90;;;;;;4169257;28;20352;-96
2022/09/02 00:23:25;;;;;;;7.03;2.25;;;19.30;99.90;;;;;;4153838;28;20192;-92
2022/09/02 00:25:26;;;;;;;7.07;1.83;;;19.30;99.90;;;;;;4155066;28;20161;-92
2022/09/02 00:27:27;;;;;;;5.07;1.95;;;19.30;99.90;;;;;;4170002;28;20251;-94
2022/09/02 00:29:28;;;;;;;6.20;1.98;;;19.40;99.90;;;;;;4138537;28;20300;-93
2022/09/02 00:31:29;;;;;;;8.85;2.22;;;19.40;99.90;;;;;;4155053;28;20231;-96
2022/09/02 00:33:30;;;;;;;7.72;2.20;;;19.50;99.90;;;;;;4169379;28;20178;-92
2022/09/02 00:35:31;;;;;;;8.82;2.15;;;19.50;99.90;;;;;;4153834;28;20200;-93
2022/09/02 00:37:32;;;;;;;4.57;2.30;;;19.70;99.90;;;;;;4154994;28;20549;-96
2022/09/02 00:39:33;;;;;;;4.22;1.85;;;19.40;99.90;;;;;;4153109;28;20611;-92
2022/09/02 00:41:36;;;;;;;6.82;2.13;;;19.40;99.90;;;;;;4187428;28;20266;-92
2022/09/02 00:43:41;;;;;;;11.00;2.22;;;19.30;99.90;;;;;;4170149;28;20159;-91
2022/09/02 00:45:42;;;;;;;5.50;1.80;;;19.40;99.90;;;;;;4151598;28;20216;-92
2022/09/02 00:47:49;;;;;;;8.45;1.85;;;19.50;99.90;;;;;;4167788;28;20172;-93
2022/09/02 00:49:53;;;;;;;5.25;2.22;;;19.60;99.90;;;;;;4171705;28;20279;-94
2022/09/02 00:52:09;;;;;;;9.63;2.40;;;19.70;99.90;;;;;;4171813;28;20188;-96
2022/09/02 00:54:12;;;;;;;8.20;2.15;;;19.60;99.90;;;;;;4156220;28;20607;-92
2022/09/02 00:56:19;;;;;;;6.05;1.90;;;19.50;99.90;;;;;;4169767;28;20183;-96
2022/09/02 00:58:28;;;;;;;4.28;1.70;;;19.60;99.90;;;;;;4168364;28;20236;-96
2022/09/02 01:00:34;;;;;;;6.97;1.83;;;19.60;99.90;;;;;;4168122;28;20187;-95
2022/09/02 01:02:37;;;;;;;6.88;1.75;;;19.60;99.90;;;;;;4151433;28;20719;-94
2022/09/02 01:04:38;;;;;;;5.43;2.05;;;19.50;99.90;;;;;;4167321;28;20176;-94
2022/09/02 01:06:39;;;;;;;5.93;1.60;;;19.40;99.90;;;;;;4151710;28;20180;-91
2022/09/02 01:08:48;;;;;;;5.43;1.92;;;19.40;99.90;;;;;;4168532;28;20652;-92
2022/09/02 01:10:48;;;;;;;7.10;2.00;;;19.50;99.90;;;;;;4167270;28;20233;-95
2022/09/02 01:12:55;;;;;;;6.63;2.40;;;19.40;99.90;;;;;;4167341;28;20180;-95
2022/09/02 01:14:56;;;;;;;5.20;2.08;;;19.40;99.90;;;;;;4169724;28;20183;-94
2022/09/02 01:17:00;;;;;;;4.10;2.00;;;19.40;99.90;;;;;;4169234;28;20176;-95
2022/09/02 01:19:09;;;;;;;5.40;2.20;;;19.40;99.90;;;;;;4168793;28;20221;-93
2022/09/02 01:21:10;;;;;;;9.30;2.10;;;19.30;99.90;;;;;;4168045;28;20262;-91
2022/09/02 01:23:12;;;;;;;10.27;2.10;;;19.30;99.90;;;;;;4167723;28;20622;-96
2022/09/02 01:25:17;;;;;;;4.68;2.10;;;19.10;99.90;;;;;;4168880;28;20174;-91
2022/09/02 01:27:21;;;;;;;6.93;2.08;;;19.00;99.90;;;;;;4176100;28;20240;-95
2022/09/02 01:29:23;;;;;;;10.35;2.20;;;18.70;99.90;;;;;;4172433;28;20208;-92
2022/09/02 01:31:24;;;;;;;9.73;1.90;;;18.80;99.90;;;;;;4169436;28;20637;-93
2022/09/02 01:33:26;;;;;;;4.47;1.60;;;19.00;99.90;;;;;;4173493;28;20179;-95
2022/09/02 01:35:26;;;;;;;3.67;2.00;;;18.90;99.90;;;;;;4144120;28;20276;-92
2022/09/02 01:37:28;;;;;;;9.50;2.22;;;18.70;99.90;;;;;;4175491;28;20215;-92
2022/09/02 01:39:29;;;;;;;6.95;1.80;;;18.70;99.90;;;;;;4173642;28;20584;-92
2022/09/02 01:41:29;;;;;;;4.90;2.00;;;18.90;99.90;;;;;;4155500;28;20177;-95
2022/09/02 01:43:32;;;;;;;3.33;2.05;;;18.90;99.90;;;;;;4175130;28;20184;-95
2022/09/02 01:45:35;;;;;;;5.60;2.08;;;19.00;99.90;;;;;;4141203;28;20319;-96
2022/09/02 01:47:36;;;;;;;6.78;2.00;;;19.10;99.90;;;;;;4173812;28;20180;-96
2022/09/02 01:49:38;;;;;;;7.75;2.10;;;19.10;99.90;;;;;;4186864;28;20199;-94
2022/09/02 01:51:39;;;;;;;9.00;2.00;;;19.20;99.90;;;;;;4151553;28;20259;-95
2022/09/02 01:53:42;;;;;;;10.73;2.05;;;19.30;99.90;;;;;;4153451;28;20207;-96
2022/09/02 01:55:43;;;;;;;6.50;2.13;;;19.30;99.90;;;;;;4171611;28;20175;-90
2022/09/02 01:57:46;;;;;;;6.10;1.90;;;19.10;99.90;;;;;;4157514;28;20184;-95
2022/09/02 01:59:47;;;;;;;6.85;2.45;;;19.10;99.90;;;;;;4161790;28;20193;-96
2022/09/02 02:01:51;;;;;;;13.00;2.53;;;18.80;99.90;;;;;;4177710;28;20262;-93
2022/09/02 02:03:54;;;;;;;6.65;2.00;;;18.70;99.90;;;;;;4180352;28;20156;-92
2022/09/02 02:05:57;;;;;;;3.08;1.90;;;18.70;99.90;;;;;;4182000;28;20166;-91
2022/09/02 02:07:59;;;;;;;9.77;1.98;;;18.80;99.90;;;;;;4160199;28;20184;-94
2022/09/02 02:10:00;;;;;;;5.45;2.05;;;19.00;99.90;;;;;;4158457;28;20193;-93
2022/09/02 02:12:02;;;;;;;7.93;2.10;;;19.10;99.90;;;;;;4154832;28;20213;-95
2022/09/02 02:14:05;;;;;;;6.55;2.63;;;19.00;99.90;;;;;;4172809;28;20171;-95
2022/09/02 02:16:06;;;;;;;5.50;2.13;;;18.60;99.90;;;;;;4174951;28;20234;-96
2022/09/02 02:18:09;;;;;;;5.85;2.03;;;18.40;99.90;;;;;;4187853;28;20179;-91
2022/09/02 02:20:13;;;;;;;4.40;2.15;;;18.30;99.90;;;;;;4172266;28;20208;-96
2022/09/02 02:22:16;;;;;;;8.32;2.13;;;18.30;99.90;;;;;;4166369;28;20172;-96
2022/09/02 02:24:17;;;;;;;7.68;2.40;;;18.70;99.90;;;;;;4184941;28;20203;-93
2022/09/02 02:26:18;;;;;;;12.85;2.50;;;18.80;99.90;;;;;;4166134;28;20171;-93
2022/09/02 02:28:19;;;;;;;12.32;3.33;;;19.00;99.90;;;;;;4165815;28;20512;-91
2022/09/02 02:30:21;;;;;;;6.25;2.20;;;18.90;99.90;;;;;;4171264;28;20234;-95
2022/09/02 02:32:25;;;;;;;7.65;2.10;;;18.70;99.90;;;;;;4159934;28;20201;-95
2022/09/02 02:34:27;;;;;;;11.27;2.67;;;18.50;99.90;;;;;;4174556;28;20529;-91
2022/09/02 02:36:28;;;;;;;6.93;2.10;;;18.40;99.90;;;;;;4174867;28;20172;-93
2022/09/02 02:38:31;;;;;;;6.97;2.15;;;18.40;99.90;;;;;;4170981;28;20183;-94
2022/09/02 02:40:31;;;;;;;6.00;2.30;;;18.40;99.90;;;;;;4157155;28;20256;-91
2022/09/02 02:42:35;;;;;;;13.13;2.17;;;18.50;99.90;;;;;;4156849;28;20165;-91
2022/09/02 02:44:38;;;;;;;4.65;2.20;;;18.60;99.90;;;;;;4179513;28;20169;-96
2022/09/02 02:46:39;;;;;;;6.75;1.98;;;18.60;99.90;;;;;;4138779;28;20185;-91
2022/09/02 02:48:41;;;;;;;3.85;2.00;;;18.70;99.90;;;;;;4169348;28;20168;-96
2022/09/02 02:50:43;;;;;;;5.13;2.00;;;18.90;99.90;;;;;;4151767;28;20688;-91
2022/09/02 02:52:43;;;;;;;5.03;2.65;;;19.20;99.90;;;;;;4167461;28;20180;-92
2022/09/02 02:54:44;;;;;;;8.68;2.30;;;19.10;99.90;;;;;;4153156;28;20169;-91
2022/09/02 02:56:45;;;;;;;7.55;2.53;;;19.10;99.90;;;;;;4198585;28;20167;-95
2022/09/02 02:58:46;;;;;;;4.43;2.35;;;19.10;99.90;;;;;;4152680;28;20177;-92
2022/09/02 03:00:48;;;;;;;5.95;2.40;;;19.00;99.90;;;;;;4168393;28;20167;-91
2022/09/02 03:02:53;;;;;;;5.78;2.35;;;19.00;99.90;;;;;;4150172;28;20168;-90
2022/09/02 03:04:55;;;;;;;8.73;2.70;;;19.00;99.90;;;;;;4165477;28;20179;-90
2022/09/02 03:06:56;;;;;;;8.52;2.72;;;19.00;99.90;;;;;;4165422;28;20176;-90
2022/09/02 03:08:58;;;;;;;9.73;2.80;;;19.00;99.90;;;;;;4166762;28;20195;-91
2022/09/02 03:11:00;;;;;;;5.40;2.30;;;18.90;99.90;;;;;;4166865;28;20711;-91
2022/09/02 03:13:03;;;;;;;5.72;2.30;;;18.80;99.90;;;;;;4165857;28;20569;-91
2022/09/02 03:15:06;;;;;;;5.18;2.40;;;18.80;99.90;;;;;;4166667;28;20173;-96
2022/09/02 03:17:07;;;;;;;6.78;2.53;;;18.70;99.90;;;;;;4149538;28;20173;-93
2022/09/02 03:19:08;;;;;;;8.32;2.40;;;18.60;99.90;;;;;;4165900;28;20234;-91
2022/09/02 03:21:09;;;;;;;5.88;2.50;;;18.50;99.90;;;;;;4149777;28;20713;-95
2022/09/02 03:23:12;;;;;;;4.20;2.47;;;18.50;99.90;;;;;;4151108;28;20173;-90
2022/09/02 03:25:19;;;;;;;8.60;2.65;;;18.40;99.90;;;;;;4150251;28;20279;-92
2022/09/02 03:27:20;;;;;;;7.57;2.53;;;18.40;99.90;;;;;;4155122;28;20214;-96
2022/09/02 03:29:21;;;;;;;5.47;2.22;;;18.50;99.90;;;;;;4149214;28;20216;-91
2022/09/02 03:31:23;;;;;;;4.03;2.22;;;18.50;99.90;;;;;;4135783;28;20246;-92
2022/09/02 03:33:24;;;;;;;4.85;2.10;;;18.60;99.90;;;;;;4166598;28;20180;-91
2022/09/02 03:35:26;;;;;;;8.32;2.30;;;18.80;99.90;;;;;;4167285;28;20265;-91
2022/09/02 03:37:27;;;;;;;10.57;2.40;;;18.80;99.90;;;;;;4166053;28;20179;-91
2022/09/02 03:39:28;;;;;;;4.95;2.15;;;18.70;99.90;;;;;;4154367;28;20473;-91
2022/09/02 03:41:29;;;;;;;5.30;2.30;;;18.60;99.90;;;;;;4169236;28;20671;-94
2022/09/02 03:43:31;;;;;;;6.97;2.08;;;18.60;99.90;;;;;;4152237;28;20239;-96
2022/09/02 03:45:32;;;;;;;4.80;1.98;;;18.70;99.90;;;;;;4167672;28;20262;-96
2022/09/02 03:47:42;;;;;;;10.98;2.40;;;18.70;99.90;;;;;;4155069;28;20176;-91
2022/09/02 03:49:45;;;;;;;6.80;2.40;;;18.70;99.90;;;;;;4158769;28;20204;-95
2022/09/02 03:51:48;;;;;;;10.27;2.22;;;18.50;99.90;;;;;;4169562;28;20191;-90
2022/09/02 03:53:48;;;;;;;5.18;2.05;;;18.50;99.90;;;;;;4170167;28;20188;-95
2022/09/02 03:55:49;;;;;;;6.28;2.03;;;18.50;99.90;;;;;;4152596;28;20264;-91
2022/09/02 03:57:50;;;;;;;5.88;2.30;;;18.40;99.90;;;;;;4174192;28;20203;-94
2022/09/02 03:59:52;;;;;;;4.07;2.22;;;18.40;99.90;;;;;;4173308;28;20263;-91
2022/09/02 04:01:54;;;;;;;7.07;2.15;;;18.30;99.90;;;;;;4169235;28;20176;-95
2022/09/02 04:03:55;;;;;;;10.25;2.50;;;18.40;99.90;;;;;;4169878;28;20194;-94
2022/09/02 04:05:56;;;;;;;8.13;2.20;;;18.40;99.90;;;;;;4154916;28;20168;-91
2022/09/02 04:07:59;;;;;;;6.70;2.25;;;18.30;99.90;;;;;;4169872;28;20180;-92
2022/09/02 04:10:01;;;;;;;4.20;2.22;;;18.10;99.90;;;;;;4151991;28;20185;-90
2022/09/02 04:12:04;;;;;;;6.28;2.40;;;18.00;99.90;;;;;;4168228;28;20274;-90
2022/09/02 04:14:06;;;;;;;9.45;2.55;;;17.80;99.90;;;;;;4168343;28;20255;-92
2022/09/02 04:16:09;;;;;;;5.97;2.30;;;17.80;99.90;;;;;;4151654;28;20514;-92
2022/09/02 04:18:11;;;;;;;4.25;2.45;;;17.80;99.90;;;;;;4153159;28;20200;-91
2022/09/02 04:20:13;;;;;;;7.07;2.55;;;17.80;99.90;;;;;;4169468;28;20188;-91
2022/09/02 04:22:14;;;;;;;7.45;2.83;;;17.80;99.90;;;;;;4169476;28;20176;-91
2022/09/02 04:24:15;;;;;;;5.72;2.70;;;17.70;99.90;;;;;;4153667;28;20559;-95
2022/09/02 04:26:21;;;;;;;8.57;2.72;;;17.60;99.90;;;;;;4153092;28;20169;-91
2022/09/02 04:28:25;;;;;;;6.63;2.20;;;17.50;99.90;;;;;;4167259;28;20187;-92
2022/09/02 04:30:27;;;;;;;7.68;2.88;;;17.50;99.90;;;;;;4152435;28;20213;-92
2022/09/02 04:32:28;;;;;;;4.65;2.67;;;17.30;99.90;;;;;;4152277;28;20598;-91
2022/09/02 04:34:29;;;;;;;4.53;2.42;;;17.30;99.90;;;;;;4168331;28;20176;-95
2022/09/02 04:36:30;;;;;;;8.18;2.95;;;17.20;99.90;;;;;;4151700;28;20594;-91
2022/09/02 04:38:33;;;;;;;4.25;2.33;;;17.30;99.90;;;;;;4151399;28;20177;-95
2022/09/02 04:40:34;;;;;;;6.50;3.08;;;17.30;99.90;;;;;;4150909;28;20215;-92
2022/09/02 04:42:35;;;;;;;5.93;2.60;;;17.20;99.90;;;;;;4151347;28;20240;-90
2022/09/02 04:44:37;;;;;;;6.80;2.38;;;17.30;99.90;;;;;;4167943;28;20183;-92
2022/09/02 04:46:37;;;;;;;8.05;2.67;;;17.30;99.90;;;;;;4168171;28;20172;-94
2022/09/02 04:48:43;;;;;;;8.65;2.50;;;17.30;99.90;;;;;;4168318;28;20911;-94
2022/09/02 04:50:44;;;;;;;5.50;2.83;;;17.30;99.90;;;;;;4167026;28;20208;-95
2022/09/02 04:52:46;;;;;;;8.20;2.72;;;17.30;99.90;;;;;;4150891;28;20196;-95
2022/09/02 04:54:48;;;;;;;7.32;2.63;;;17.30;99.90;;;;;;4167730;28;20180;-92
2022/09/02 04:56:48;;;;;;;4.70;2.78;;;17.20;99.90;;;;;;4168685;28;20165;-90
2022/09/02 04:58:50;;;;;;;6.20;2.38;;;17.40;99.90;;;;;;4165832;28;20183;-95
2022/09/02 05:00:53;;;;;;;6.78;2.22;;;17.40;99.90;;;;;;4167469;28;20238;-95
2022/09/02 05:02:56;;;;;;;12.50;2.92;;;17.50;99.90;;;;;;4167453;28;20192;-91
2022/09/02 05:05:00;;;;;;;10.25;2.92;;;17.40;99.90;;;;;;4167494;28;20211;-91
2022/09/02 05:07:04;;;;;;;4.05;2.38;;;17.40;99.90;;;;;;4151090;28;20240;-94
2022/09/02 05:09:09;;;;;;;5.88;2.70;;;17.50;99.90;;;;;;4166799;28;20229;-90
2022/09/02 05:11:18;;;;;;;8.00;3.13;;;17.50;99.90;;;;;;4167158;28;20236;-90
2022/09/02 05:13:19;;;;;;;7.55;2.97;;;17.50;99.90;;;;;;4173164;28;20172;-90
2022/09/02 05:15:20;;;;;;;6.32;2.83;;;17.50;99.90;;;;;;4175654;28;20176;-95
2022/09/02 05:17:22;;;;;;;9.52;2.67;;;17.50;99.90;;;;;;4170835;28;20168;-94
2022/09/02 05:19:23;;;;;;;10.60;3.08;;;17.50;99.90;;;;;;4159933;28;20199;-96
2022/09/02 05:21:25;;;;;;;9.25;2.78;;;17.50;99.90;;;;;;4164953;28;20192;-90
2022/09/02 05:23:26;;;;;;;6.68;2.80;;;17.50;99.90;;;;;;4178684;28;20175;-94
2022/09/02 05:25:26;;;;;;;10.20;3.42;;;17.50;99.90;;;;;;4156624;28;20185;-93
2022/09/02 05:27:28;;;;;;;9.25;2.97;;;17.50;99.90;;;;;;4153799;28;20248;-95
2022/09/02 05:29:29;;;;;;;11.27;3.30;;;17.70;99.90;;;;;;4174935;28;20208;-92
2022/09/02 05:31:31;;;;;;;11.30;3.30;;;17.70;99.90;;;;;;4156261;28;20291;-95
2022/09/02 05:33:36;;;;;;;6.97;2.80;;;17.70;99.90;;;;;;4170610;28;20621;-94
2022/09/02 05:35:42;;;;;;;10.48;2.60;;;17.70;99.90;;;;;;4174400;28;20576;-91
2022/09/02 05:37:43;;;;;;;6.70;2.80;;;17.70;99.90;;;;;;4178628;28;20169;-90
2022/09/02 05:41:49;;;;;;;6.93;3.30;;;17.80;99.90;;;;;;4182043;28;20676;-88
2022/09/02 05:43:53;;;;;;;18.70;3.20;;;17.80;99.90;;;;;;4166133;28;20176;-87
2022/09/02 05:45:54;;;;;;;8.95;3.92;;;18.00;99.90;;;;;;4165958;28;20259;-87
2022/09/02 05:47:54;;;;;;;9.52;3.65;;;17.90;99.90;;;;;;4149287;28;20223;-91
2022/09/02 05:50:00;;;;;;;9.57;2.88;;;18.20;99.90;;;;;;4149514;28;20188;-87
2022/09/02 05:52:02;;;;;;;7.95;3.00;;;18.40;99.90;;;;;;4149469;28;20180;-90
2022/09/02 05:54:12;;;;;;;6.50;3.13;;;18.50;99.90;;;;;;4149635;28;20176;-87
2022/09/02 05:56:13;;;;;;;12.15;3.15;;;18.70;99.90;;;;;;4165616;28;20172;-86
2022/09/02 05:58:16;;;;;;;7.18;3.30;;;18.70;99.90;;;;;;4149332;28;20193;-87
2022/09/02 06:00:17;;;;;;;8.18;2.83;;;18.70;99.90;;;;;;4149147;28;20732;-87
2022/09/02 06:02:25;;;;;;;5.70;2.90;;;18.60;99.90;;;;;;4165905;28;20188;-87
2022/09/02 06:04:26;;;;;;;8.00;3.28;;;18.30;99.90;;;;;;4165659;28;20173;-87
2022/09/02 06:06:28;;;;;;;8.80;3.53;;;17.90;99.90;;;;;;4165641;28;20299;-87
2022/09/02 06:08:30;;;;;;;20.38;3.50;;;17.80;99.90;;;;;;4165580;28;20595;-87
2022/09/02 06:10:32;;;;;;;13.80;3.22;;;18.00;99.90;;;;;;4148638;28;20519;-87
2022/09/02 06:12:34;;;;;;;8.63;3.42;;;18.20;99.90;;;;;;4165487;28;20214;-87
2022/09/02 06:14:36;;;;;;;14.98;3.65;;;18.40;99.90;;;;;;4165308;28;20799;-87
2022/09/02 06:16:39;;;;;;;7.63;3.58;;;18.80;99.90;;;;;;4149149;28;20299;-87
2022/09/02 06:18:45;;;;;;;15.35;3.60;;;19.00;99.90;;;;;;4149422;28;20204;-91
2022/09/02 06:20:47;;;;;;;8.35;3.45;;;19.30;99.90;;;;;;4181951;28;20640;-86
2022/09/02 06:22:49;;;;;;;6.45;3.22;;;19.30;99.90;;;;;;4165473;28;20215;-88
2022/09/02 06:24:52;;;;;;;13.10;3.58;;;19.30;99.90;;;;;;4165360;28;20679;-87
2022/09/02 06:26:58;;;;;;;13.90;3.35;;;19.40;99.90;;;;;;4149645;28;20185;-87
2022/09/02 06:28:59;;;;;;;10.77;3.50;;;19.60;99.90;;;;;;4165497;28;20164;-88
2022/09/02 06:31:09;;;;;;;10.73;3.72;;;19.60;99.90;;;;;;4165478;28;20265;-89
2022/09/02 06:33:11;;;;;;;13.57;3.65;;;19.50;99.90;;;;;;4149067;28;20180;-87
2022/09/02 06:35:14;;;;;;;21.20;4.05;;;19.50;99.90;;;;;;4149265;28;20260;-87
2022/09/02 06:37:15;;;;;;;9.00;3.70;;;19.50;99.90;;;;;;4165210;28;20624;-87
2022/09/02 06:39:20;;;;;;;9.43;3.80;;;19.40;99.90;;;;;;4148823;28;20193;-86
2022/09/02 06:41:25;;;;;;;7.18;3.50;;;19.30;99.90;;;;;;4148709;28;20184;-86
2022/09/02 06:43:27;;;;;;;11.20;3.40;;;19.30;99.90;;;;;;4164894;28;20273;-93
2022/09/02 06:45:45;;;;;;;7.28;3.92;;;19.20;99.90;;;;;;4150775;28;20176;-87
2022/09/02 06:47:47;;;;;;;14.43;4.00;;;19.10;99.90;;;;;;4164895;28;20731;-87
2022/09/02 06:49:48;;;;;;;6.65;3.42;;;19.30;99.90;;;;;;4148268;28;20240;-87
2022/09/02 06:51:52;;;;;;;10.85;3.78;;;19.60;99.90;;;;;;4148553;28;20208;-87
2022/09/02 06:53:54;;;;;;;7.72;3.38;;;19.80;99.90;;;;;;4164879;28;20179;-87
2022/09/02 06:55:55;;;;;;;10.63;3.55;;;19.80;99.90;;;;;;4148638;28;20244;-87
2022/09/02 06:57:56;;;;;;;12.48;3.90;;;19.60;99.90;;;;;;4148145;28;20165;-87
2022/09/02 06:59:57;;;;;;;11.95;3.50;;;19.50;99.90;;;;;;4148358;28;20581;-87
2022/09/02 07:01:58;;;;;;;10.32;3.50;;;19.60;99.90;;;;;;4148614;28;20165;-88
2022/09/02 07:06:21;;;;;;;7.78;3.10;;;19.60;99.90;;;;;;4164931;28;20186;-90
2022/09/02 07:08:24;;;;;;;9.10;3.50;;;19.90;99.90;;;;;;4148511;28;20180;-87
2022/09/02 07:10:25;;;;;;;7.78;3.42;;;20.20;99.90;;;;;;4148628;28;20256;-93
2022/09/02 07:12:28;;;;;;;11.43;3.00;;;20.60;99.90;;;;;;4149110;28;20168;-93
2022/09/02 07:14:42;;;;;;;7.78;2.78;;;21.60;99.90;;;;;;4149514;28;20179;-94
2022/09/02 07:16:48;;;;;;;4.22;2.30;;;23.30;99.90;;;;;;4164863;28;20191;-88
2022/09/02 07:18:49;;;;;;;8.40;2.83;;;23.80;99.90;;;;;;4164972;28;20230;-93
2022/09/02 07:20:51;;;;;;;8.05;2.50;;;24.70;99.90;;;;;;4165804;28;20164;-90
2022/09/02 07:22:52;;;;;;;13.93;3.17;;;25.90;99.90;;;;;;4165365;28;20176;-93
2022/09/02 07:24:56;;;;;;;9.48;2.40;;;26.50;99.90;;;;;;4149907;28;20652;-95
2022/09/02 07:26:58;;;;;;;6.50;2.45;;;27.50;99.90;;;;;;4150425;28;20173;-90
2022/09/02 07:28:59;;;;;;;9.75;2.55;;;27.80;99.90;;;;;;4149997;28;20271;-90
2022/09/02 07:31:01;;;;;;;16.67;2.53;;;27.50;99.90;;;;;;4150225;28;20296;-90
2022/09/02 07:33:03;;;;;;;5.97;2.63;;;28.40;99.90;;;;;;4167112;28;20169;-92
2022/09/02 07:35:06;;;;;;;7.43;2.50;;;29.00;99.90;;;;;;4150853;28;20176;-90
2022/09/02 07:37:08;;;;;;;12.60;2.25;;;29.30;99.90;;;;;;4168211;28;20199;-93
2022/09/02 07:39:10;;;;;;;4.82;2.40;;;29.90;99.90;;;;;;4150746;28;20199;-94
2022/09/02 07:41:12;;;;;;;6.78;2.67;;;30.10;99.90;;;;;;4167152;28;20176;-91
2022/09/02 07:43:12;;;;;;;5.03;2.50;;;29.70;99.90;;;;;;4150167;28;20259;-91
2022/09/02 07:45:15;;;;;;;5.10;2.45;;;29.10;99.90;;;;;;4166379;28;20218;-91
2022/09/02 07:47:18;;;;;;;3.50;2.25;;;29.30;99.90;;;;;;4166187;28;20171;-92
2022/09/02 07:49:21;;;;;;;5.00;2.22;;;30.30;99.90;;;;;;4152201;28;20264;-93
2022/09/02 07:51:24;;;;;;;10.65;2.40;;;30.30;99.90;;;;;;4168342;28;20230;-93
2022/09/02 07:53:26;;;;;;;8.25;2.50;;;29.90;99.90;;;;;;4150161;28;20172;-91
2022/09/02 07:55:29;;;;;;;4.70;2.17;;;29.30;99.90;;;;;;4150100;28;20200;-95
2022/09/02 07:57:30;;;;;;;9.30;2.83;;;29.60;99.90;;;;;;4168803;28;20172;-92
2022/09/02 07:59:31;;;;;;;8.25;2.28;;;29.80;99.90;;;;;;4150117;28;20668;-92
2022/09/02 08:01:35;;;;;;;3.95;2.20;;;30.30;99.90;;;;;;4168643;28;20656;-92
2022/09/02 08:03:38;;;;;;;10.73;2.38;;;30.40;99.90;;;;;;4137267;28;20183;-92
2022/09/02 08:05:43;;;;;;;5.07;2.20;;;30.00;99.90;;;;;;4154865;28;20216;-93
2022/09/02 08:07:45;;;;;;;7.13;2.47;;;29.50;99.90;;;;;;4169912;28;20206;-94
2022/09/02 08:09:45;;;;;;;5.70;2.13;;;30.00;99.90;;;;;;4167342;28;20199;-95
2022/09/02 08:11:49;;;;;;;7.75;2.40;;;30.50;99.90;;;;;;4151425;28;20220;-93
2022/09/02 08:13:50;;;;;;;6.72;2.20;;;31.30;99.90;;;;;;4150446;28;20618;-92
2022/09/02 08:15:50;;;;;;;5.65;2.47;;;31.30;99.90;;;;;;4152003;28;20177;-93
2022/09/02 08:17:51;;;;;;;17.85;3.05;;;31.90;99.90;;;;;;4149945;28;20177;-95
2022/09/02 08:19:52;;;;;;;6.22;2.33;;;31.80;99.90;;;;;;4148806;28;20243;-93
2022/09/02 08:21:54;;;;;;;11.98;2.50;;;31.90;99.90;;;;;;4148281;28;20187;-95
2022/09/02 08:23:56;;;;;;;4.20;2.45;;;31.50;99.90;;;;;;4148884;28;20168;-95
2022/09/02 08:26:01;;;;;;;7.50;2.40;;;32.20;99.90;;;;;;4168735;28;20187;-91
2022/09/02 08:28:02;;;;;;;7.63;2.53;;;31.30;99.90;;;;;;4151430;28;20177;-92
2022/09/02 08:30:04;;;;;;;6.03;2.40;;;31.30;99.90;;;;;;4166106;28;20232;-92
2022/09/02 08:32:05;;;;;;;7.10;2.35;;;31.90;99.90;;;;;;4168002;28;20313;-95
2022/09/02 08:34:06;;;;;;;6.13;2.30;;;31.30;99.90;;;;;;4153770;28;20173;-92
2022/09/02 08:36:10;;;;;;;10.48;2.88;;;31.70;99.90;;;;;;4156069;28;20193;-92
2022/09/02 08:38:11;;;;;;;3.88;2.40;;;30.90;99.90;;;;;;4172373;28;20172;-96
2022/09/02 08:40:20;;;;;;;7.22;2.60;;;30.50;99.90;;;;;;4155026;28;20669;-94
2022/09/02 08:42:34;;;;;;;9.52;2.70;;;31.00;99.90;;;;;;4172571;28;20171;-94
2022/09/02 08:44:37;;;;;;;8.15;2.70;;;31.00;99.90;;;;;;4174164;28;20172;-91
2022/09/02 08:46:38;;;;;;;3.42;2.30;;;30.20;99.90;;;;;;4173893;28;20690;-91
2022/09/02 08:49:08;;;;;;;4.18;2.63;;;30.60;99.90;;;;;;4159449;28;20172;-92
2022/09/02 08:51:15;;;;;;;6.88;2.17;;;30.50;99.90;;;;;;4154916;28;20213;-92
2022/09/02 08:53:51;;;;;;;5.82;2.50;;;30.60;99.90;;;;;;4160817;28;20180;-93
2022/09/02 08:55:57;;;;;;;6.38;2.13;;;30.50;99.90;;;;;;4145424;28;20671;-93
2022/09/02 08:58:00;;;;;;;3.40;2.17;;;30.80;99.90;;;;;;4157346;28;20177;-93
2022/09/02 09:00:03;;;;;;;6.63;2.15;;;30.60;99.90;;;;;;4156666;28;20263;-93
2022/09/02 09:02:11;;;;;;;5.45;2.58;;;30.50;99.90;;;;;;4157387;28;20172;-93
2022/09/02 09:04:40;;;;;;;10.93;2.85;;;30.70;99.90;;;;;;4158117;28;20185;-91
2022/09/02 09:06:53;;;;;;;4.63;2.40;;;30.60;99.90;;;;;;4159250;28;20240;-92
2022/09/02 09:09:06;;;;;;;6.00;2.60;;;30.40;99.90;;;;;;4156075;28;20262;-92
2022/09/02 09:11:28;;;;;;;5.53;2.55;;;30.10;99.90;;;;;;4173306;28;20219;-94
2022/09/02 09:13:59;;;;;;;5.60;2.50;;;29.20;99.90;;;;;;4253809;27;20609;-92
2022/09/02 09:16:16;;;;;;;6.00;2.58;;;29.80;99.90;;;;;;4236318;28;20189;-92
2022/09/02 09:18:20;;;;;;;4.90;2.15;;;30.00;99.90;;;;;;4219449;28;20184;-94
2022/09/02 09:20:25;;;;;;;6.78;2.13;;;30.10;99.90;;;;;;4223817;28;20637;-93
2022/09/02 09:22:36;;;;;;;6.30;2.50;;;30.90;99.90;;;;;;4199739;28;20667;-92
2022/09/02 09:24:43;;;;;;;5.93;2.20;;;30.80;99.90;;;;;;4197995;28;20207;-94
2022/09/02 09:26:46;;;;;;;9.13;2.13;;;30.90;99.90;;;;;;4197881;28;20171;-94
2022/09/02 09:28:49;;;;;;;7.82;2.25;;;31.30;99.90;;;;;;4198458;28;20538;-92
2022/09/02 09:30:50;;;;;;;5.97;2.30;;;31.90;99.90;;;;;;4197823;28;20249;-95
2022/09/02 09:33:03;;;;;;;7.30;2.20;;;31.80;99.90;;;;;;4201357;28;20205;-93
2022/09/02 09:35:06;;;;;;;5.90;2.30;;;32.10;99.90;;;;;;4201104;28;20174;-95
2022/09/02 09:37:07;;;;;;;4.93;2.28;;;32.30;99.90;;;;;;4202753;28;20183;-92
2022/09/02 09:39:17;;;;;;;3.47;2.28;;;31.80;99.90;;;;;;4201482;28;20759;-93
2022/09/02 09:41:23;;;;;;;5.88;2.40;;;31.40;99.90;;;;;;4201922;28;20174;-95
2022/09/02 09:43:30;;;;;;;4.57;2.53;;;31.50;99.90;;;;;;4201793;28;20185;-95
2022/09/02 09:45:36;;;;;;;6.25;2.35;;;31.70;99.90;;;;;;4200989;28;20558;-95
2022/09/02 09:47:37;;;;;;;7.78;2.75;;;32.00;99.90;;;;;;4217740;28;20169;-93
2022/09/02 09:49:39;;;;;;;8.02;2.25;;;32.30;99.90;;;;;;4199985;28;20248;-95
2022/09/02 09:51:54;;;;;;;7.70;2.40;;;32.80;99.90;;;;;;4200314;28;20284;-96
2022/09/02 09:54:15;;;;;;;8.63;2.50;;;33.10;99.90;;;;;;4200787;28;20539;-96
2022/09/02 09:56:26;;;;;;;7.38;2.55;;;33.00;99.90;;;;;;4216711;28;20166;-95
2022/09/02 09:58:33;;;;;;;6.63;2.13;;;32.70;99.90;;;;;;4196534;28;20252;-90
2022/09/02 10:00:34;;;;;;;8.88;2.45;;;32.90;99.90;;;;;;4213732;28;20185;-92
2022/09/02 10:02:46;;;;;;;5.93;2.38;;;32.70;99.90;;;;;;4196794;28;20261;-92
2022/09/02 10:04:47;;;;;;;7.55;2.42;;;32.90;99.90;;;;;;4197033;28;20231;-96
2022/09/02 10:06:48;;;;;;;5.75;2.50;;;32.90;99.90;;;;;;4197165;28;20183;-93
2022/09/02 10:09:03;;;;;;;5.82;2.47;;;32.90;99.90;;;;;;4196357;28;20261;-93
2022/09/02 10:11:25;;;;;;;6.43;2.53;;;31.40;99.90;;;;;;4197149;28;20178;-93
2022/09/02 10:13:29;;;;;;;3.63;2.25;;;30.70;99.90;;;;;;4196392;28;20236;-92
2022/09/02 10:16:03;;;;;;;10.88;2.50;;;30.40;99.90;;;;;;4196731;28;20208;-94
2022/09/02 10:18:32;;;;;;;4.38;2.45;;;28.60;99.90;;;;;;4175374;28;20219;-92
2022/09/02 10:20:51;;;;;;;6.55;2.22;;;27.80;99.90;;;;;;4192042;28;20203;-93
2022/09/02 10:23:04;;;;;;;7.63;2.00;;;27.80;99.90;;;;;;4196491;28;20586;-93
2022/09/02 10:25:08;;;;;;;4.90;2.00;;;27.80;99.90;;;;;;4200947;28;20261;-92
2022/09/02 10:27:15;;;;;;;4.32;1.95;;;27.90;99.90;;;;;;4201298;28;20171;-92
2022/09/02 10:29:39;;;;;;;3.70;1.60;;;27.90;99.90;;;;;;4185694;28;20282;-94
2022/09/02 10:32:08;;;;;;;6.72;1.90;;;28.10;99.90;;;;;;4185584;28;20175;-93
2022/09/02 10:34:23;;;;;;;2.42;1.60;;;27.90;99.90;;;;;;4201861;28;20248;-94
2022/09/02 10:36:35;;;;;;;6.40;1.75;;;27.90;99.90;;;;;;4201720;28;20175;-92
2022/09/02 10:38:49;;;;;;;4.72;1.75;;;28.00;99.90;;;;;;4184833;28;20355;-94
2022/09/02 10:40:58;;;;;;;2.83;1.73;;;28.20;99.90;;;;;;4183876;28;20183;-92
2022/09/02 10:43:17;;;;;;;5.07;1.88;;;28.50;99.90;;;;;;4185147;28;20175;-91
2022/09/02 10:45:44;;;;;;;2.97;1.90;;;27.90;99.90;;;;;;4185552;28;20624;-92
2022/09/02 10:48:11;;;;;;;4.47;1.90;;;27.80;99.90;;;;;;4184437;28;20202;-92
2022/09/02 10:50:30;;;;;;;3.15;1.55;;;27.70;99.90;;;;;;4202451;28;20190;-93